Flight Track Log - Related Links

Times and Time Zones

All times are in EDT time to prevent confusion due to time zone crossing. See the USC110 flight status page for this flight to view local times or setup timezone preferences in your user account.

Time Position Orientation Groundspeed Altitude Reporting Facility
EDT Latitude Longitude Course Direction KTS MPH feet Rate Location/Type
Fri 09:58:32 PM 39.8203 -82.9217 43° Northeast 101 116 1,000  Level Indianapolis Center
Fri 09:59:08 PM 39.8322 -82.9072 43° Northeast 103 119 1,500 796 Climbing Indianapolis Center
Fri 10:00:10 PM 39.8553 -82.8739 48° Northeast 122 140 2,300 934 Climbing Indianapolis Center
Fri 10:01:10 PM 39.8883 -82.8481 31° Northeast 138 159 3,400 1,100 Climbing Indianapolis Center
Fri 10:02:10 PM 39.9194 -82.8286 26° Northeast 127 146 4,500 893 Climbing Indianapolis Center
Fri 10:03:11 PM 39.9578 -82.8019 28° Northeast 150 173 5,200 672 Climbing Indianapolis Center
Fri 10:04:15 PM 39.9908 -82.7742 33° Northeast 150 173 5,900 709 Climbing Indianapolis Center
Fri 10:05:18 PM 40.0344 -82.7456 27° Northeast 153 176 6,700 639 Climbing Indianapolis Center
Fri 10:06:17 PM 40.0683 -82.7225 28° Northeast 155 178 7,200 550 Climbing Indianapolis Center
Fri 10:07:18 PM 40.1078 -82.6950 28° Northeast 158 182 7,800 590 Climbing Indianapolis Center
Fri 10:08:19 PM 40.1458 -82.6692 27° Northeast 154 177 8,400 541 Climbing Indianapolis Center
Fri 10:09:20 PM 40.1853 -82.6428 27° Northeast 157 181 8,900 295 Climbing Indianapolis Center
Fri 10:10:21 PM 40.2264 -82.6111 30° Northeast 171 197 9,000 49 Climbing Indianapolis Center
Fri 10:11:22 PM 40.2769 -82.5772 27° Northeast 173 199 9,000  Level Indianapolis Center
Fri 10:12:24 PM 40.3194 -82.5472 28° Northeast 173 199 9,000  Level Indianapolis Center
Fri 10:13:25 PM 40.3625 -82.5200 26° Northeast 171 197 9,000  Level Indianapolis Center
Fri 10:14:26 PM 40.4042 -82.4883 30° Northeast 171 197 9,000  Level Indianapolis Center
Fri 10:15:27 PM 40.4472 -82.4600 27° Northeast 171 197 9,000  Level Indianapolis Center
Fri 10:16:28 PM 40.4894 -82.4303 28° Northeast 170 196 9,000  Level Indianapolis Center
Fri 10:17:29 PM 40.5333 -82.3975 30° Northeast 175 201 9,000  Level Indianapolis Center
Fri 10:18:30 PM 40.5758 -82.3672 28° Northeast 174 200 9,000  Level Indianapolis Center
Fri 10:19:31 PM 40.6194 -82.3347 29° Northeast 176 203 9,000  Level Indianapolis Center
Fri 10:20:32 PM 40.6625 -82.3050 28° Northeast 174 200 9,000  Level Indianapolis Center
Fri 10:21:33 PM 40.7067 -82.2728 29° Northeast 177 204 9,000  Level Indianapolis Center
Fri 10:22:34 PM 40.7492 -82.2428 28° Northeast 175 201 9,000 -49 Level Indianapolis Center
Fri 10:23:35 PM 40.7933 -82.2100 29° Northeast 177 204 8,900 -49 Descending Indianapolis Center
Fri 10:24:36 PM 40.8361 -82.1778 30° Northeast 177 204 8,900  Level Indianapolis Center
Fri 10:25:37 PM 40.8806 -82.1469 28° Northeast 177 204 8,900  Level Indianapolis Center
Fri 10:26:11 PM 40.9072 -82.1297 26° Northeast 175 201 8,900 66 Level Cleveland Center
Fri 10:27:08 PM 40.9431 -82.1006 32° Northeast 167 192 9,000 -290 Climbing Cleveland Center
Fri 10:28:36 PM 41.0064 -82.0386 36° Northeast 193 222 8,200 -545 Descending Cleveland Center

Login

Don't have an account? Register now (free) for customized features, flight alerts, and more!